createdAt,value
2019-02-10T00:02:54.790Z,94841.78
2019-02-10T00:06:02.353Z,94846.50
2019-02-10T00:09:09.527Z,94845.30
2019-02-10T00:12:17.137Z,94848.14
2019-02-10T00:15:24.396Z,94841.61
2019-02-10T00:18:32.019Z,94838.29
2019-02-10T00:21:39.406Z,94840.35
2019-02-10T00:24:47.162Z,94834.97
2019-02-10T00:27:54.610Z,94826.03
2019-02-10T00:31:01.981Z,94820.53
2019-02-10T00:34:09.603Z,94819.70
2019-02-10T00:37:17.302Z,94805.29
2019-02-10T00:40:24.801Z,94796.84
2019-02-10T00:43:32.215Z,94792.85
2019-02-10T00:46:39.581Z,94791.70
2019-02-10T00:49:46.983Z,94790.17
2019-02-10T00:52:54.372Z,94782.50
2019-02-10T00:56:01.641Z,94777.67
2019-02-10T00:59:09.285Z,94782.86
2019-02-10T01:02:16.627Z,94776.27
2019-02-10T01:05:24.215Z,94782.39
2019-02-10T01:08:31.494Z,94774.21
2019-02-10T01:12:06.755Z,94769.34
2019-02-10T01:15:24.241Z,94781.05
2019-02-10T01:18:40.848Z,94782.83
2019-02-10T01:22:10.537Z,94772.59
2019-02-10T01:25:33.774Z,94772.48
2019-02-10T01:28:52.702Z,94762.22
2019-02-10T01:32:01.900Z,94753.76
2019-02-10T01:35:13.434Z,94749.09
2019-02-10T01:38:40.792Z,94751.94
2019-02-10T01:42:02.832Z,94744.44
2019-02-10T01:45:46.547Z,94738.77
2019-02-10T01:48:56.296Z,94736.48
2019-02-10T01:55:12.610Z,94725.08
2019-02-10T01:58:20.227Z,94715.47
2019-02-10T02:01:27.435Z,94703.96
2019-02-10T02:04:34.882Z,94705.00
2019-02-10T02:07:42.723Z,94708.80
2019-02-10T02:10:50.136Z,94704.97
2019-02-10T02:13:57.510Z,94696.52
2019-02-10T02:17:05.123Z,94695.22
2019-02-10T02:20:12.837Z,94697.88
2019-02-10T02:23:20.292Z,94695.67
2019-02-10T02:26:28.032Z,94694.92
2019-02-10T02:29:35.324Z,94685.17
2019-02-10T02:32:43.109Z,94687.57
2019-02-10T02:35:50.691Z,94679.56
2019-02-10T02:38:58.009Z,94675.07
2019-02-10T02:42:05.188Z,94673.22
2019-02-10T02:45:12.680Z,94661.98
2019-02-10T02:48:19.937Z,94658.66
2019-02-10T02:51:27.129Z,94652.64
2019-02-10T02:54:34.351Z,94647.14
2019-02-10T02:57:41.663Z,94640.02
2019-02-10T03:00:48.847Z,94634.61
2019-02-10T03:03:56.206Z,94620.91
2019-02-10T03:07:03.772Z,94615.58
2019-02-10T03:10:11.221Z,94615.09
2019-02-10T03:13:18.448Z,94611.55
2019-02-10T03:16:25.887Z,94605.66
2019-02-10T03:19:33.053Z,94605.97
2019-02-10T03:22:40.221Z,94596.63
2019-02-10T03:25:47.492Z,94593.10
2019-02-10T03:28:54.940Z,94585.65
2019-02-10T03:32:02.367Z,94581.15
2019-02-10T03:35:09.939Z,94578.84
2019-02-10T03:38:17.102Z,94569.26
2019-02-10T03:41:24.642Z,94568.13
2019-02-10T03:44:32.068Z,94563.02
2019-02-10T03:47:39.489Z,94556.31
2019-02-10T03:50:46.974Z,94558.20
2019-02-10T03:53:54.231Z,94546.84
2019-02-10T03:57:01.846Z,94543.00
2019-02-10T04:00:09.326Z,94538.77
2019-02-10T04:03:16.897Z,94529.91
2019-02-10T04:06:24.701Z,94523.53
2019-02-10T04:09:32.180Z,94516.30
2019-02-10T04:12:39.597Z,94507.66
2019-02-10T04:15:46.824Z,94501.34
2019-02-10T04:18:54.383Z,94495.80
2019-02-10T04:22:01.675Z,94497.08
2019-02-10T04:25:09.386Z,94499.88
2019-02-10T04:28:16.664Z,94493.27
2019-02-10T04:31:23.940Z,94486.72
2019-02-10T04:34:31.149Z,94468.88
2019-02-10T04:37:45.472Z,94466.73
2019-02-10T04:40:47.799Z,94463.02
2019-02-10T04:43:54.958Z,94454.77
2019-02-10T04:47:02.122Z,94458.12
2019-02-10T04:50:09.749Z,94444.08
2019-02-10T04:53:17.247Z,94456.19
2019-02-10T04:56:24.399Z,94445.17
2019-02-10T04:59:32.411Z,94429.66
2019-02-10T05:02:40.288Z,94443.44
2019-02-10T05:05:47.749Z,94423.54
2019-02-10T05:08:54.949Z,94421.20
2019-02-10T05:12:02.129Z,94407.41
2019-02-10T05:15:09.427Z,94402.04
2019-02-10T05:18:17.416Z,94409.55
2019-02-10T05:21:24.852Z,94407.75
2019-02-10T05:24:32.045Z,94406.84
2019-02-10T05:27:39.200Z,94397.45
2019-02-10T05:30:46.356Z,94384.52
2019-02-10T05:33:53.538Z,94380.88
2019-02-10T05:37:01.104Z,94379.03
2019-02-10T05:40:08.495Z,94358.86
2019-02-10T05:43:15.655Z,94361.48
2019-02-10T05:46:22.846Z,94346.16
2019-02-10T05:49:30.087Z,94324.42
2019-02-10T05:52:37.546Z,94310.50
2019-02-10T05:55:45.113Z,94289.15
2019-02-10T05:58:52.512Z,94281.23
2019-02-10T06:02:08.374Z,94295.13
2019-02-10T06:05:23.086Z,94285.71
2019-02-10T06:08:31.073Z,94295.62
2019-02-10T06:11:38.242Z,94265.12
2019-02-10T06:14:45.657Z,94261.27
2019-02-10T06:17:52.998Z,94277.36
2019-02-10T06:21:00.277Z,94254.26
2019-02-10T06:24:07.444Z,94248.59
2019-02-10T06:27:15.331Z,94245.73
2019-02-10T06:30:22.834Z,94233.15
2019-02-10T06:33:30.444Z,94232.75
2019-02-10T06:36:37.934Z,94251.73
2019-02-10T06:39:45.424Z,94251.02
2019-02-10T06:42:52.639Z,94246.19
2019-02-10T06:46:00.093Z,94247.34
2019-02-10T06:49:07.424Z,94239.22
2019-02-10T06:52:14.995Z,94236.01
2019-02-10T06:55:22.155Z,94239.63
2019-02-10T06:58:29.946Z,94225.02
2019-02-10T07:01:50.753Z,94227.48
2019-02-10T07:04:58.329Z,94219.19
2019-02-10T07:08:05.875Z,94212.84
2019-02-10T07:11:13.030Z,94206.73
2019-02-10T07:14:33.211Z,94208.83
2019-02-10T07:18:44.651Z,94202.97
2019-02-10T07:21:52.455Z,94224.32
2019-02-10T07:25:50.857Z,94219.52
2019-02-10T07:29:54.469Z,94222.14
2019-02-10T07:33:07.335Z,94215.50
2019-02-10T07:36:31.933Z,94212.57
2019-02-10T07:40:46.981Z,94197.50
2019-02-10T07:44:37.833Z,94183.72
2019-02-10T07:48:45.084Z,94180.10
2019-02-10T07:53:08.092Z,94165.30
2019-02-10T07:57:12.883Z,94153.50
2019-02-10T08:00:32.950Z,94137.77
2019-02-10T08:04:39.615Z,94100.04
2019-02-10T08:08:46.645Z,94068.67
2019-02-10T08:12:30.131Z,94064.95
2019-02-10T08:16:27.929Z,94056.81
2019-02-10T08:20:25.126Z,94054.26
2019-02-10T08:23:59.417Z,94061.72
2019-02-10T08:27:40.249Z,94070.63
2019-02-10T08:31:27.609Z,94070.25
2019-02-10T08:35:27.394Z,94074.25
2019-02-10T08:39:14.207Z,94067.64
2019-02-10T08:43:33.718Z,94071.83
2019-02-10T08:48:09.491Z,94069.66
2019-02-10T08:52:05.984Z,94089.12
2019-02-10T08:55:13.353Z,94079.98
2019-02-10T08:58:20.788Z,94065.23
2019-02-10T09:01:27.963Z,94058.27
2019-02-10T09:04:35.119Z,94063.91
2019-02-10T09:07:42.631Z,94052.53
2019-02-10T09:10:50.891Z,94069.41
2019-02-10T09:13:58.166Z,94027.68
2019-02-10T09:17:05.569Z,94020.22
2019-02-10T09:20:13.134Z,94000.61
2019-02-10T09:23:21.170Z,93991.23
2019-02-10T09:26:28.520Z,93997.47
2019-02-10T09:29:36.005Z,93995.84
2019-02-10T09:32:43.990Z,93984.77
2019-02-10T09:35:51.451Z,93980.28
2019-02-10T09:38:59.028Z,93966.52
2019-02-10T09:42:06.555Z,93955.75
2019-02-10T09:45:14.145Z,93952.67
2019-02-10T09:48:21.603Z,93948.66
2019-02-10T09:51:29.752Z,93939.63
2019-02-10T09:54:38.234Z,93935.05
2019-02-10T09:57:47.089Z,93917.94
2019-02-10T10:00:56.153Z,93917.16
2019-02-10T10:04:03.609Z,93917.84
2019-02-10T10:07:11.939Z,93920.99
2019-02-10T10:10:19.379Z,93918.83
2019-02-10T10:13:26.833Z,93912.81
2019-02-10T10:16:33.988Z,93907.55
2019-02-10T10:19:41.147Z,93900.19
2019-02-10T10:23:08.395Z,93892.27
2019-02-10T10:26:15.769Z,93875.50
2019-02-10T10:29:22.935Z,93865.48
2019-02-10T10:32:30.304Z,93863.39
2019-02-10T10:35:37.580Z,93870.39
2019-02-10T10:38:44.795Z,93854.95
2019-02-10T10:41:51.952Z,93840.08
2019-02-10T10:44:59.134Z,93832.75
2019-02-10T10:48:06.705Z,93838.23
2019-02-10T10:51:13.905Z,93831.62
2019-02-10T10:54:21.455Z,93816.74
2019-02-10T10:57:29.148Z,93815.11
2019-02-10T11:00:36.847Z,93804.03
2019-02-10T11:03:44.529Z,93794.64
2019-02-10T11:06:52.202Z,93777.17
2019-02-10T11:09:59.656Z,93769.92
2019-02-10T11:13:07.588Z,93757.03
2019-02-10T11:16:14.848Z,93736.02
2019-02-10T11:19:22.493Z,93723.30
2019-02-10T11:22:30.314Z,93706.20
2019-02-10T11:25:37.932Z,93696.97
2019-02-10T11:28:45.304Z,93680.98
2019-02-10T11:31:52.664Z,93674.26
2019-02-10T11:35:00.351Z,93661.39
2019-02-10T11:38:07.657Z,93672.92
2019-02-10T11:41:14.923Z,93655.75
2019-02-10T11:44:22.861Z,93636.66
2019-02-10T11:47:30.355Z,93637.63
2019-02-10T11:50:38.783Z,93633.86
2019-02-10T11:53:46.895Z,93629.84
2019-02-10T11:56:54.790Z,93611.14
2019-02-10T12:00:03.200Z,93615.39
2019-02-10T12:03:10.613Z,93607.00
2019-02-10T12:06:18.719Z,93603.33
2019-02-10T12:09:26.407Z,93598.70
2019-02-10T12:12:33.561Z,93592.64
2019-02-10T12:15:40.750Z,93583.41
2019-02-10T12:18:48.693Z,93579.31
2019-02-10T12:21:56.103Z,93564.07
2019-02-10T12:25:04.568Z,93566.55
2019-02-10T12:28:11.902Z,93557.66
2019-02-10T12:31:20.130Z,93547.08
2019-02-10T12:34:27.561Z,93541.99
2019-02-10T12:37:35.954Z,93534.44
2019-02-10T12:40:44.767Z,93518.75
2019-02-10T12:43:52.452Z,93516.91
2019-02-10T12:46:59.991Z,93498.68
2019-02-10T12:50:09.327Z,93483.34
2019-02-10T12:53:18.071Z,93482.19
2019-02-10T12:56:25.802Z,93476.30
2019-02-10T12:59:33.818Z,93466.77
2019-02-10T13:02:41.574Z,93463.34
2019-02-10T13:05:49.220Z,93451.36
2019-02-10T13:08:56.603Z,93448.86
2019-02-10T13:12:04.027Z,93430.39
2019-02-10T13:15:12.213Z,93420.52
2019-02-10T13:18:20.083Z,93406.23
2019-02-10T13:21:28.174Z,93404.52
2019-02-10T13:24:35.351Z,93390.62
2019-02-10T13:27:42.778Z,93378.62
2019-02-10T13:30:50.124Z,93382.06
2019-02-10T13:33:58.018Z,93375.41
2019-02-10T13:37:05.791Z,93366.63
2019-02-10T13:40:16.930Z,93363.41
2019-02-10T13:43:24.622Z,93363.58
2019-02-10T13:46:32.054Z,93349.13
2019-02-10T13:49:40.074Z,93345.89
2019-02-10T13:52:48.237Z,93345.52
2019-02-10T13:55:56.415Z,93337.16
2019-02-10T13:59:03.863Z,93339.23
2019-02-10T14:02:11.847Z,93342.41
2019-02-10T14:05:19.452Z,93341.99
2019-02-10T14:08:27.032Z,93342.18
2019-02-10T14:11:34.802Z,93341.47
2019-02-10T14:14:42.319Z,93338.65
2019-02-10T14:17:50.149Z,93334.94
2019-02-10T14:20:57.553Z,93338.80
2019-02-10T14:24:05.905Z,93336.05
2019-02-10T14:27:13.750Z,93321.45
2019-02-10T14:30:22.191Z,93318.44
2019-02-10T14:33:29.713Z,93302.41
2019-02-10T14:36:37.037Z,93300.67
2019-02-10T14:39:44.294Z,93306.20
2019-02-10T14:42:52.032Z,93306.68
2019-02-10T14:45:59.398Z,93299.08
2019-02-10T14:49:06.842Z,93299.27
2019-02-10T14:52:14.366Z,93299.48
2019-02-10T14:55:22.134Z,93295.10
2019-02-10T14:58:30.036Z,93290.92
2019-02-10T15:01:37.639Z,93290.55
2019-02-10T15:04:45.203Z,93285.61
2019-02-10T15:07:53.183Z,93283.34
2019-02-10T15:11:00.673Z,93285.24
2019-02-10T15:14:08.374Z,93275.72
2019-02-10T15:17:15.585Z,93278.36
2019-02-10T15:20:23.358Z,93262.87
2019-02-10T15:23:30.895Z,93256.18
2019-02-10T15:26:38.435Z,93261.65
2019-02-10T15:29:46.483Z,93257.07
2019-02-10T15:32:53.758Z,93252.64
2019-02-10T15:36:01.733Z,93255.96
2019-02-10T15:39:09.369Z,93247.75
2019-02-10T15:42:17.042Z,93253.70
2019-02-10T15:45:24.245Z,93244.77
2019-02-10T15:48:31.527Z,93239.64
2019-02-10T15:51:39.728Z,93227.45
2019-02-10T15:54:47.225Z,93234.66
2019-02-10T15:57:54.749Z,93228.14
2019-02-10T16:01:01.909Z,93232.80
2019-02-10T16:04:09.404Z,93240.58
2019-02-10T16:07:16.832Z,93235.74
2019-02-10T16:10:25.519Z,93235.73
2019-02-10T16:13:33.329Z,93242.50
2019-02-10T16:16:40.889Z,93246.55
2019-02-10T16:19:48.139Z,93253.33
2019-02-10T16:22:55.445Z,93250.44
2019-02-10T16:26:03.844Z,93253.40
2019-02-10T16:29:11.651Z,93252.92
2019-02-10T16:32:19.245Z,93248.91
2019-02-10T16:35:27.336Z,93247.92
2019-02-10T16:38:35.508Z,93262.41
2019-02-10T16:41:43.506Z,93267.45
2019-02-10T16:44:51.356Z,93259.48
2019-02-10T16:47:58.892Z,93253.09
2019-02-10T16:51:06.410Z,93254.70
2019-02-10T16:54:24.100Z,93248.11
2019-02-10T16:57:32.019Z,93253.38
2019-02-10T17:00:39.520Z,93261.66
2019-02-10T17:03:47.208Z,93270.73
2019-02-10T17:06:54.763Z,93288.30
2019-02-10T17:10:02.293Z,93290.80
2019-02-10T17:13:10.205Z,93297.81
2019-02-10T17:16:18.318Z,93302.98
2019-02-10T17:19:25.923Z,93286.31
2019-02-10T17:22:33.908Z,93281.34
2019-02-10T17:25:41.444Z,93284.36
2019-02-10T17:28:49.211Z,93292.52
2019-02-10T17:31:57.549Z,93308.08
2019-02-10T17:35:06.262Z,93318.45
2019-02-10T17:38:13.882Z,93317.09
2019-02-10T17:41:36.332Z,93302.68
2019-02-10T17:44:43.874Z,93298.39
2019-02-10T17:47:51.420Z,93300.05
2019-02-10T17:50:59.014Z,93314.58
2019-02-10T17:54:06.281Z,93336.09
2019-02-10T17:57:13.807Z,93346.89
2019-02-10T18:00:24.024Z,93386.70
2019-02-10T18:03:31.851Z,93428.80
2019-02-10T18:06:39.360Z,93444.31
2019-02-10T18:09:47.654Z,93456.56
2019-02-10T18:12:55.385Z,93479.25
2019-02-10T18:16:37.550Z,93535.43
2019-02-10T18:19:55.763Z,93570.69
2019-02-10T18:23:18.602Z,93588.90
2019-02-10T18:26:40.860Z,93624.33
2019-02-10T18:29:58.505Z,93635.73
2019-02-10T18:33:22.936Z,93658.16
2019-02-10T18:36:46.662Z,93681.15
2019-02-10T18:40:10.954Z,93702.67
2019-02-10T18:43:41.356Z,93717.89
2019-02-10T18:46:59.526Z,93735.67
2019-02-10T18:50:28.202Z,93745.21
2019-02-10T18:54:13.971Z,93760.42
2019-02-10T18:57:36.547Z,93768.00
2019-02-10T19:01:18.893Z,93787.05
2019-02-10T19:04:39.761Z,93783.30
2019-02-10T19:08:05.179Z,93784.33
2019-02-10T19:11:47.407Z,93785.31
2019-02-10T19:15:02.699Z,93788.38
2019-02-10T19:18:30.997Z,93804.30
2019-02-10T19:22:04.239Z,93797.13
2019-02-10T19:25:24.009Z,93803.17
2019-02-10T19:28:54.201Z,93789.71
2019-02-10T19:32:13.029Z,93782.19
2019-02-10T19:35:33.115Z,93789.53
2019-02-10T19:39:07.637Z,93793.36
2019-02-10T19:42:32.240Z,93783.22
2019-02-10T19:45:55.223Z,93783.58
2019-02-10T19:49:21.121Z,93791.69
2019-02-10T19:52:51.909Z,93799.92
2019-02-10T19:56:11.871Z,93798.86
2019-02-10T19:59:37.407Z,93790.38
2019-02-10T20:02:52.669Z,93815.76
2019-02-10T20:06:21.599Z,93831.52
2019-02-10T20:09:42.231Z,93833.98
2019-02-10T20:13:08.742Z,93824.55
2019-02-10T20:16:24.001Z,93818.84
2019-02-10T20:20:00.259Z,93822.11
2019-02-10T20:23:27.324Z,93813.92
2019-02-10T20:26:53.157Z,93810.22
2019-02-10T20:30:11.535Z,93802.42
2019-02-10T20:33:38.858Z,93817.41
2019-02-10T20:37:10.186Z,93819.50
2019-02-10T20:40:32.515Z,93838.11
2019-02-10T20:43:48.125Z,93848.98
2019-02-10T20:47:30.451Z,93843.05
2019-02-10T20:51:03.755Z,93841.09
2019-02-10T20:54:33.511Z,93843.28
2019-02-10T20:58:06.900Z,93845.97
2019-02-10T21:01:34.391Z,93851.98
2019-02-10T21:04:53.638Z,93859.03
2019-02-10T21:08:27.256Z,93880.16
2019-02-10T21:11:45.082Z,93855.23
2019-02-10T21:15:24.400Z,93845.62
2019-02-10T21:18:50.343Z,93865.30
2019-02-10T21:22:04.030Z,93875.48
2019-02-10T21:25:23.377Z,93872.45
2019-02-10T21:28:56.761Z,93864.67
2019-02-10T21:32:12.537Z,93851.56
2019-02-10T21:35:26.191Z,93846.92
2019-02-10T21:38:44.915Z,93840.22
2019-02-10T21:42:16.318Z,93826.10
2019-02-10T21:45:33.237Z,93813.53
2019-02-10T21:48:50.811Z,93805.59
2019-02-10T21:51:58.855Z,93806.44
2019-02-10T21:55:07.192Z,93783.27
2019-02-10T21:58:14.521Z,93800.08
2019-02-10T22:01:21.782Z,93792.97
2019-02-10T22:04:29.374Z,93796.89
2019-02-10T22:07:37.567Z,93799.45
2019-02-10T22:10:45.572Z,93778.94
2019-02-10T22:13:52.769Z,93760.95
2019-02-10T22:17:00.661Z,93770.20
2019-02-10T22:20:10.277Z,93762.78
2019-02-10T22:23:17.777Z,93765.04
2019-02-10T22:26:25.267Z,93758.48
2019-02-10T22:29:32.795Z,93727.05
2019-02-10T22:32:40.397Z,93731.64
2019-02-10T22:35:47.545Z,93730.26
2019-02-10T22:38:55.043Z,93735.05
2019-02-10T22:42:02.318Z,93709.44
2019-02-10T22:45:10.258Z,93734.20
2019-02-10T22:48:17.837Z,93743.38
2019-02-10T22:51:25.254Z,93780.66
2019-02-10T22:54:32.887Z,93788.45
2019-02-10T22:57:41.240Z,93809.05
2019-02-10T23:01:01.394Z,93819.36
2019-02-10T23:04:08.573Z,93798.70
2019-02-10T23:07:16.170Z,93810.71
2019-02-10T23:10:23.587Z,93835.81
2019-02-10T23:13:30.941Z,93832.83
2019-02-10T23:16:38.349Z,93836.48
2019-02-10T23:19:45.743Z,93831.54
2019-02-10T23:22:53.260Z,93825.81
2019-02-10T23:26:00.416Z,93831.91
2019-02-10T23:29:08.130Z,93827.48
2019-02-10T23:32:15.329Z,93826.28
2019-02-10T23:35:22.716Z,93830.75
2019-02-10T23:38:30.511Z,93817.03
2019-02-10T23:41:37.674Z,93813.63
2019-02-10T23:44:44.839Z,93840.96
2019-02-10T23:47:52.386Z,93841.27
2019-02-10T23:50:59.889Z,93838.34
2019-02-10T23:54:07.058Z,93831.71
2019-02-10T23:57:14.411Z,93850.45
